sensor_id;sensor_type;location;lat;lon;timestamp;P1;durP1;ratioP1;P2;durP2;ratioP2
39882;SDS011;55824;52.220;21.040;2023-08-01T00:00:51;4.47;;;2.10;;
39882;SDS011;55824;52.220;21.040;2023-08-01T00:03:17;3.78;;;2.45;;
39882;SDS011;55824;52.220;21.040;2023-08-01T00:05:43;3.10;;;2.20;;
39882;SDS011;55824;52.220;21.040;2023-08-01T00:08:12;5.40;;;2.92;;
39882;SDS011;55824;52.220;21.040;2023-08-01T00:10:39;4.55;;;1.98;;
39882;SDS011;55824;52.220;21.040;2023-08-01T00:13:05;5.13;;;2.58;;
39882;SDS011;55824;52.220;21.040;2023-08-01T00:15:31;4.35;;;2.25;;
39882;SDS011;55824;52.220;21.040;2023-08-01T00:17:57;6.18;;;2.30;;
39882;SDS011;55824;52.220;21.040;2023-08-01T00:20:23;3.78;;;2.00;;
39882;SDS011;55824;52.220;21.040;2023-08-01T00:22:49;2.53;;;1.90;;
39882;SDS011;55824;52.220;21.040;2023-08-01T00:25:15;5.03;;;2.50;;
39882;SDS011;55824;52.220;21.040;2023-08-01T00:27:41;3.88;;;2.30;;
39882;SDS011;55824;52.220;21.040;2023-08-01T00:30:07;5.93;;;2.42;;
39882;SDS011;55824;52.220;21.040;2023-08-01T00:32:34;4.63;;;2.42;;
39882;SDS011;55824;52.220;21.040;2023-08-01T00:35:00;4.45;;;2.50;;
39882;SDS011;55824;52.220;21.040;2023-08-01T00:37:26;3.55;;;2.03;;
39882;SDS011;55824;52.220;21.040;2023-08-01T00:39:52;4.13;;;2.40;;
39882;SDS011;55824;52.220;21.040;2023-08-01T00:42:18;3.40;;;2.00;;
39882;SDS011;55824;52.220;21.040;2023-08-01T00:44:44;3.20;;;2.10;;
39882;SDS011;55824;52.220;21.040;2023-08-01T00:47:11;5.25;;;2.50;;
39882;SDS011;55824;52.220;21.040;2023-08-01T00:49:37;3.70;;;2.42;;
39882;SDS011;55824;52.220;21.040;2023-08-01T00:52:04;3.90;;;2.25;;
39882;SDS011;55824;52.220;21.040;2023-08-01T00:54:30;4.07;;;2.22;;
39882;SDS011;55824;52.220;21.040;2023-08-01T00:57:01;4.35;;;2.60;;
39882;SDS011;55824;52.220;21.040;2023-08-01T00:59:27;4.13;;;2.33;;
39882;SDS011;55824;52.220;21.040;2023-08-01T01:01:53;3.40;;;2.25;;
39882;SDS011;55824;52.220;21.040;2023-08-01T01:04:19;3.75;;;2.00;;
39882;SDS011;55824;52.220;21.040;2023-08-01T01:06:48;3.13;;;2.00;;
39882;SDS011;55824;52.220;21.040;2023-08-01T01:09:18;4.18;;;1.98;;
39882;SDS011;55824;52.220;21.040;2023-08-01T01:11:44;3.17;;;2.33;;
39882;SDS011;55824;52.220;21.040;2023-08-01T01:14:10;4.65;;;2.33;;
39882;SDS011;55824;52.220;21.040;2023-08-01T01:16:36;3.38;;;2.20;;
39882;SDS011;55824;52.220;21.040;2023-08-01T01:19:08;3.08;;;2.10;;
39882;SDS011;55824;52.220;21.040;2023-08-01T01:21:35;4.70;;;2.20;;
39882;SDS011;55824;52.220;21.040;2023-08-01T01:24:02;6.03;;;2.67;;
39882;SDS011;55824;52.220;21.040;2023-08-01T01:26:29;4.28;;;2.00;;
39882;SDS011;55824;52.220;21.040;2023-08-01T01:28:55;3.35;;;2.00;;
39882;SDS011;55824;52.220;21.040;2023-08-01T01:31:21;3.38;;;2.30;;
39882;SDS011;55824;52.220;21.040;2023-08-01T01:33:47;5.93;;;2.30;;
39882;SDS011;55824;52.220;21.040;2023-08-01T01:36:13;4.32;;;2.53;;
39882;SDS011;55824;52.220;21.040;2023-08-01T01:38:39;5.75;;;2.58;;
39882;SDS011;55824;52.220;21.040;2023-08-01T01:41:05;3.90;;;2.05;;
39882;SDS011;55824;52.220;21.040;2023-08-01T01:43:31;3.65;;;2.50;;
39882;SDS011;55824;52.220;21.040;2023-08-01T01:45:57;3.67;;;2.15;;
39882;SDS011;55824;52.220;21.040;2023-08-01T01:48:23;4.13;;;2.42;;
39882;SDS011;55824;52.220;21.040;2023-08-01T01:50:49;3.67;;;2.40;;
39882;SDS011;55824;52.220;21.040;2023-08-01T01:53:15;3.55;;;2.08;;
39882;SDS011;55824;52.220;21.040;2023-08-01T01:55:40;2.90;;;1.90;;
39882;SDS011;55824;52.220;21.040;2023-08-01T01:58:06;4.10;;;2.25;;
39882;SDS011;55824;52.220;21.040;2023-08-01T02:00:32;3.67;;;2.47;;
39882;SDS011;55824;52.220;21.040;2023-08-01T02:02:58;5.40;;;2.40;;
39882;SDS011;55824;52.220;21.040;2023-08-01T02:05:27;5.33;;;2.53;;
39882;SDS011;55824;52.220;21.040;2023-08-01T02:07:53;4.40;;;2.65;;
39882;SDS011;55824;52.220;21.040;2023-08-01T02:10:19;4.47;;;2.40;;
39882;SDS011;55824;52.220;21.040;2023-08-01T02:12:45;4.57;;;2.10;;
39882;SDS011;55824;52.220;21.040;2023-08-01T02:15:11;3.83;;;2.40;;
39882;SDS011;55824;52.220;21.040;2023-08-01T02:17:37;2.78;;;1.90;;
39882;SDS011;55824;52.220;21.040;2023-08-01T02:20:03;5.30;;;2.83;;
39882;SDS011;55824;52.220;21.040;2023-08-01T02:22:30;4.63;;;2.38;;
39882;SDS011;55824;52.220;21.040;2023-08-01T02:24:56;4.60;;;2.78;;
39882;SDS011;55824;52.220;21.040;2023-08-01T02:27:22;3.38;;;2.40;;
39882;SDS011;55824;52.220;21.040;2023-08-01T02:29:48;3.70;;;2.10;;
39882;SDS011;55824;52.220;21.040;2023-08-01T02:32:15;3.13;;;2.13;;
39882;SDS011;55824;52.220;21.040;2023-08-01T02:34:41;5.30;;;2.45;;
39882;SDS011;55824;52.220;21.040;2023-08-01T02:37:07;3.38;;;2.28;;
39882;SDS011;55824;52.220;21.040;2023-08-01T02:39:34;4.00;;;1.92;;
39882;SDS011;55824;52.220;21.040;2023-08-01T02:42:00;4.50;;;2.35;;
39882;SDS011;55824;52.220;21.040;2023-08-01T02:44:26;3.45;;;2.28;;
39882;SDS011;55824;52.220;21.040;2023-08-01T02:46:52;3.92;;;2.50;;
39882;SDS011;55824;52.220;21.040;2023-08-01T02:49:18;6.63;;;2.80;;
39882;SDS011;55824;52.220;21.040;2023-08-01T02:51:44;3.47;;;2.20;;
39882;SDS011;55824;52.220;21.040;2023-08-01T02:54:10;3.33;;;2.13;;
39882;SDS011;55824;52.220;21.040;2023-08-01T02:56:36;3.15;;;1.90;;
39882;SDS011;55824;52.220;21.040;2023-08-01T02:59:06;4.45;;;2.72;;
39882;SDS011;55824;52.220;21.040;2023-08-01T03:01:33;3.95;;;2.30;;
39882;SDS011;55824;52.220;21.040;2023-08-01T03:03:59;4.40;;;2.63;;
39882;SDS011;55824;52.220;21.040;2023-08-01T03:06:25;4.40;;;2.50;;
39882;SDS011;55824;52.220;21.040;2023-08-01T03:08:51;3.53;;;2.20;;
39882;SDS011;55824;52.220;21.040;2023-08-01T03:11:17;3.47;;;2.20;;
39882;SDS011;55824;52.220;21.040;2023-08-01T03:13:43;3.67;;;1.98;;
39882;SDS011;55824;52.220;21.040;2023-08-01T03:16:09;2.85;;;2.03;;
39882;SDS011;55824;52.220;21.040;2023-08-01T03:18:35;4.72;;;2.20;;
39882;SDS011;55824;52.220;21.040;2023-08-01T03:21:01;3.70;;;2.35;;
39882;SDS011;55824;52.220;21.040;2023-08-01T03:23:28;4.05;;;2.38;;
39882;SDS011;55824;52.220;21.040;2023-08-01T03:25:54;3.10;;;2.10;;
39882;SDS011;55824;52.220;21.040;2023-08-01T03:28:20;4.50;;;2.47;;
39882;SDS011;55824;52.220;21.040;2023-08-01T03:30:46;3.83;;;2.15;;
39882;SDS011;55824;52.220;21.040;2023-08-01T03:33:15;2.83;;;2.10;;
39882;SDS011;55824;52.220;21.040;2023-08-01T03:35:41;3.90;;;2.40;;
39882;SDS011;55824;52.220;21.040;2023-08-01T03:38:07;3.70;;;2.53;;
39882;SDS011;55824;52.220;21.040;2023-08-01T03:40:33;3.38;;;2.22;;
39882;SDS011;55824;52.220;21.040;2023-08-01T03:42:59;3.80;;;2.30;;
39882;SDS011;55824;52.220;21.040;2023-08-01T03:45:25;4.88;;;2.92;;
39882;SDS011;55824;52.220;21.040;2023-08-01T03:47:51;4.43;;;2.67;;
39882;SDS011;55824;52.220;21.040;2023-08-01T03:50:17;3.70;;;2.10;;
39882;SDS011;55824;52.220;21.040;2023-08-01T03:52:43;2.95;;;2.10;;
39882;SDS011;55824;52.220;21.040;2023-08-01T03:55:09;4.05;;;2.40;;
39882;SDS011;55824;52.220;21.040;2023-08-01T03:57:35;3.25;;;1.90;;
39882;SDS011;55824;52.220;21.040;2023-08-01T04:00:01;4.68;;;2.30;;
39882;SDS011;55824;52.220;21.040;2023-08-01T04:02:28;4.60;;;2.50;;
39882;SDS011;55824;52.220;21.040;2023-08-01T04:04:54;2.90;;;2.08;;
39882;SDS011;55824;52.220;21.040;2023-08-01T04:07:20;3.92;;;2.40;;
39882;SDS011;55824;52.220;21.040;2023-08-01T04:09:46;4.38;;;2.40;;
39882;SDS011;55824;52.220;21.040;2023-08-01T04:12:12;2.00;;;1.80;;
39882;SDS011;55824;52.220;21.040;2023-08-01T04:14:38;5.15;;;2.50;;
39882;SDS011;55824;52.220;21.040;2023-08-01T04:17:04;3.65;;;2.28;;
39882;SDS011;55824;52.220;21.040;2023-08-01T04:19:30;3.85;;;2.17;;
39882;SDS011;55824;52.220;21.040;2023-08-01T04:21:56;4.30;;;2.35;;
39882;SDS011;55824;52.220;21.040;2023-08-01T04:24:22;5.57;;;2.20;;
39882;SDS011;55824;52.220;21.040;2023-08-01T04:26:50;5.55;;;2.35;;
39882;SDS011;55824;52.220;21.040;2023-08-01T04:29:17;5.82;;;2.88;;
39882;SDS011;55824;52.220;21.040;2023-08-01T04:31:43;3.92;;;2.25;;
39882;SDS011;55824;52.220;21.040;2023-08-01T04:34:09;4.03;;;2.00;;
39882;SDS011;55824;52.220;21.040;2023-08-01T04:36:36;3.70;;;2.38;;
39882;SDS011;55824;52.220;21.040;2023-08-01T04:39:01;5.82;;;2.53;;
39882;SDS011;55824;52.220;21.040;2023-08-01T04:41:27;4.25;;;2.47;;
39882;SDS011;55824;52.220;21.040;2023-08-01T04:43:53;3.33;;;2.22;;
39882;SDS011;55824;52.220;21.040;2023-08-01T04:46:19;4.75;;;2.47;;
39882;SDS011;55824;52.220;21.040;2023-08-01T04:48:45;3.70;;;2.30;;
39882;SDS011;55824;52.220;21.040;2023-08-01T04:51:11;3.38;;;2.38;;
39882;SDS011;55824;52.220;21.040;2023-08-01T04:53:37;4.45;;;2.20;;
39882;SDS011;55824;52.220;21.040;2023-08-01T04:56:04;4.50;;;2.75;;
39882;SDS011;55824;52.220;21.040;2023-08-01T04:58:30;4.60;;;2.05;;
39882;SDS011;55824;52.220;21.040;2023-08-01T05:00:56;7.45;;;2.55;;
39882;SDS011;55824;52.220;21.040;2023-08-01T05:03:22;4.88;;;1.70;;
39882;SDS011;55824;52.220;21.040;2023-08-01T05:05:48;3.75;;;2.08;;
39882;SDS011;55824;52.220;21.040;2023-08-01T05:08:14;5.10;;;2.50;;
39882;SDS011;55824;52.220;21.040;2023-08-01T05:10:40;4.63;;;2.88;;
39882;SDS011;55824;52.220;21.040;2023-08-01T05:13:06;5.00;;;2.38;;
39882;SDS011;55824;52.220;21.040;2023-08-01T05:15:32;4.72;;;2.38;;
39882;SDS011;55824;52.220;21.040;2023-08-01T05:17:58;4.50;;;2.22;;
39882;SDS011;55824;52.220;21.040;2023-08-01T05:20:24;7.80;;;2.30;;
39882;SDS011;55824;52.220;21.040;2023-08-01T05:22:55;6.22;;;2.45;;
39882;SDS011;55824;52.220;21.040;2023-08-01T05:25:21;11.55;;;10.43;;
39882;SDS011;55824;52.220;21.040;2023-08-01T05:27:47;17.38;;;13.73;;
39882;SDS011;55824;52.220;21.040;2023-08-01T05:30:13;8.98;;;6.90;;
39882;SDS011;55824;52.220;21.040;2023-08-01T05:32:39;18.40;;;11.15;;
39882;SDS011;55824;52.220;21.040;2023-08-01T05:35:06;22.42;;;16.17;;
39882;SDS011;55824;52.220;21.040;2023-08-01T05:37:32;26.83;;;15.45;;
39882;SDS011;55824;52.220;21.040;2023-08-01T05:39:58;18.52;;;13.30;;
39882;SDS011;55824;52.220;21.040;2023-08-01T05:42:24;22.63;;;13.07;;
39882;SDS011;55824;52.220;21.040;2023-08-01T05:44:50;18.55;;;11.80;;
39882;SDS011;55824;52.220;21.040;2023-08-01T05:47:17;15.85;;;11.30;;
39882;SDS011;55824;52.220;21.040;2023-08-01T05:49:43;16.00;;;9.75;;
39882;SDS011;55824;52.220;21.040;2023-08-01T05:52:09;12.52;;;8.90;;
39882;SDS011;55824;52.220;21.040;2023-08-01T05:54:35;17.73;;;8.40;;
39882;SDS011;55824;52.220;21.040;2023-08-01T05:57:01;10.57;;;7.25;;
39882;SDS011;55824;52.220;21.040;2023-08-01T05:59:27;9.88;;;7.40;;
39882;SDS011;55824;52.220;21.040;2023-08-01T06:01:53;12.45;;;7.68;;
39882;SDS011;55824;52.220;21.040;2023-08-01T06:04:19;13.48;;;6.93;;
39882;SDS011;55824;52.220;21.040;2023-08-01T06:06:45;16.00;;;7.13;;
39882;SDS011;55824;52.220;21.040;2023-08-01T06:09:11;11.18;;;5.88;;
39882;SDS011;55824;52.220;21.040;2023-08-01T06:11:37;9.77;;;5.13;;
39882;SDS011;55824;52.220;21.040;2023-08-01T06:14:03;10.23;;;5.00;;
39882;SDS011;55824;52.220;21.040;2023-08-01T06:16:29;11.55;;;5.10;;
39882;SDS011;55824;52.220;21.040;2023-08-01T06:18:55;17.13;;;5.88;;
39882;SDS011;55824;52.220;21.040;2023-08-01T06:21:21;10.65;;;5.00;;
39882;SDS011;55824;52.220;21.040;2023-08-01T06:23:47;12.30;;;4.22;;
39882;SDS011;55824;52.220;21.040;2023-08-01T06:26:13;12.13;;;4.10;;
39882;SDS011;55824;52.220;21.040;2023-08-01T06:28:42;11.73;;;4.30;;
39882;SDS011;55824;52.220;21.040;2023-08-01T06:31:08;9.48;;;4.25;;
39882;SDS011;55824;52.220;21.040;2023-08-01T06:33:34;10.63;;;3.80;;
39882;SDS011;55824;52.220;21.040;2023-08-01T06:36:00;8.68;;;3.75;;
39882;SDS011;55824;52.220;21.040;2023-08-01T06:38:26;7.97;;;3.40;;
39882;SDS011;55824;52.220;21.040;2023-08-01T06:40:52;8.52;;;3.50;;
39882;SDS011;55824;52.220;21.040;2023-08-01T06:43:18;8.13;;;3.15;;
39882;SDS011;55824;52.220;21.040;2023-08-01T06:45:44;6.95;;;2.95;;
39882;SDS011;55824;52.220;21.040;2023-08-01T06:48:10;5.43;;;2.90;;
39882;SDS011;55824;52.220;21.040;2023-08-01T06:50:36;6.45;;;3.13;;
39882;SDS011;55824;52.220;21.040;2023-08-01T06:53:02;5.55;;;2.78;;
39882;SDS011;55824;52.220;21.040;2023-08-01T06:55:28;5.60;;;2.78;;
39882;SDS011;55824;52.220;21.040;2023-08-01T06:57:54;3.75;;;2.40;;
39882;SDS011;55824;52.220;21.040;2023-08-01T07:00:20;6.47;;;3.00;;
39882;SDS011;55824;52.220;21.040;2023-08-01T07:02:46;6.00;;;2.83;;
39882;SDS011;55824;52.220;21.040;2023-08-01T07:05:12;5.93;;;2.65;;
39882;SDS011;55824;52.220;21.040;2023-08-01T07:07:38;5.47;;;2.90;;
39882;SDS011;55824;52.220;21.040;2023-08-01T07:10:04;4.60;;;2.70;;
39882;SDS011;55824;52.220;21.040;2023-08-01T07:12:30;5.50;;;3.10;;
39882;SDS011;55824;52.220;21.040;2023-08-01T07:14:56;5.65;;;2.78;;
39882;SDS011;55824;52.220;21.040;2023-08-01T07:17:22;5.28;;;2.80;;
39882;SDS011;55824;52.220;21.040;2023-08-01T07:19:48;5.68;;;2.30;;
39882;SDS011;55824;52.220;21.040;2023-08-01T07:22:14;6.03;;;3.53;;
39882;SDS011;55824;52.220;21.040;2023-08-01T07:24:40;4.90;;;2.80;;
39882;SDS011;55824;52.220;21.040;2023-08-01T07:27:06;4.07;;;2.40;;
39882;SDS011;55824;52.220;21.040;2023-08-01T07:29:32;6.28;;;3.00;;
39882;SDS011;55824;52.220;21.040;2023-08-01T07:31:58;5.20;;;2.33;;
39882;SDS011;55824;52.220;21.040;2023-08-01T07:34:24;4.47;;;2.22;;
39882;SDS011;55824;52.220;21.040;2023-08-01T07:36:50;6.32;;;2.70;;
39882;SDS011;55824;52.220;21.040;2023-08-01T07:39:16;6.20;;;2.78;;
39882;SDS011;55824;52.220;21.040;2023-08-01T07:41:42;6.43;;;2.80;;
39882;SDS011;55824;52.220;21.040;2023-08-01T07:44:08;4.75;;;2.30;;
39882;SDS011;55824;52.220;21.040;2023-08-01T07:46:34;4.45;;;2.67;;
39882;SDS011;55824;52.220;21.040;2023-08-01T07:49:00;4.25;;;2.10;;
39882;SDS011;55824;52.220;21.040;2023-08-01T07:51:26;4.25;;;2.30;;
39882;SDS011;55824;52.220;21.040;2023-08-01T07:53:52;4.65;;;2.10;;
39882;SDS011;55824;52.220;21.040;2023-08-01T07:56:19;6.50;;;2.38;;
39882;SDS011;55824;52.220;21.040;2023-08-01T07:58:45;3.78;;;2.40;;
39882;SDS011;55824;52.220;21.040;2023-08-01T08:01:11;9.18;;;2.80;;
39882;SDS011;55824;52.220;21.040;2023-08-01T08:03:37;4.43;;;2.22;;
39882;SDS011;55824;52.220;21.040;2023-08-01T08:06:03;5.55;;;2.55;;
39882;SDS011;55824;52.220;21.040;2023-08-01T08:08:30;5.25;;;2.55;;
39882;SDS011;55824;52.220;21.040;2023-08-01T08:10:58;4.40;;;2.50;;
39882;SDS011;55824;52.220;21.040;2023-08-01T08:13:26;5.25;;;2.38;;
39882;SDS011;55824;52.220;21.040;2023-08-01T08:15:52;4.40;;;2.25;;
39882;SDS011;55824;52.220;21.040;2023-08-01T08:18:17;4.50;;;2.47;;
39882;SDS011;55824;52.220;21.040;2023-08-01T08:20:45;5.68;;;2.22;;
39882;SDS011;55824;52.220;21.040;2023-08-01T08:23:11;5.10;;;2.60;;
39882;SDS011;55824;52.220;21.040;2023-08-01T08:25:39;3.63;;;2.33;;
39882;SDS011;55824;52.220;21.040;2023-08-01T08:28:05;4.47;;;2.47;;
39882;SDS011;55824;52.220;21.040;2023-08-01T08:30:31;4.00;;;2.30;;
39882;SDS011;55824;52.220;21.040;2023-08-01T08:32:57;3.88;;;2.40;;
39882;SDS011;55824;52.220;21.040;2023-08-01T08:35:25;6.60;;;2.80;;
39882;SDS011;55824;52.220;21.040;2023-08-01T08:37:51;3.70;;;2.33;;
39882;SDS011;55824;52.220;21.040;2023-08-01T08:40:17;5.10;;;2.45;;
39882;SDS011;55824;52.220;21.040;2023-08-01T08:42:43;3.97;;;2.50;;
39882;SDS011;55824;52.220;21.040;2023-08-01T08:45:10;3.45;;;2.35;;
39882;SDS011;55824;52.220;21.040;2023-08-01T08:47:38;3.70;;;2.25;;
39882;SDS011;55824;52.220;21.040;2023-08-01T08:50:07;4.45;;;3.05;;
39882;SDS011;55824;52.220;21.040;2023-08-01T08:52:33;4.05;;;2.22;;
39882;SDS011;55824;52.220;21.040;2023-08-01T08:54:59;3.58;;;2.22;;
39882;SDS011;55824;52.220;21.040;2023-08-01T08:57:27;4.90;;;2.60;;
39882;SDS011;55824;52.220;21.040;2023-08-01T08:59:53;4.80;;;2.45;;
39882;SDS011;55824;52.220;21.040;2023-08-01T09:02:19;4.22;;;2.45;;
39882;SDS011;55824;52.220;21.040;2023-08-01T09:04:46;3.17;;;2.13;;
39882;SDS011;55824;52.220;21.040;2023-08-01T09:07:12;3.67;;;2.08;;
39882;SDS011;55824;52.220;21.040;2023-08-01T09:09:39;6.00;;;2.58;;
39882;SDS011;55824;52.220;21.040;2023-08-01T09:12:05;3.63;;;2.70;;
39882;SDS011;55824;52.220;21.040;2023-08-01T09:14:31;7.03;;;2.15;;
39882;SDS011;55824;52.220;21.040;2023-08-01T09:17:05;3.45;;;2.45;;
39882;SDS011;55824;52.220;21.040;2023-08-01T09:19:31;3.30;;;2.40;;
39882;SDS011;55824;52.220;21.040;2023-08-01T09:21:58;4.57;;;2.20;;
39882;SDS011;55824;52.220;21.040;2023-08-01T09:24:24;4.70;;;2.22;;
39882;SDS011;55824;52.220;21.040;2023-08-01T09:26:50;5.10;;;2.60;;
39882;SDS011;55824;52.220;21.040;2023-08-01T09:29:16;3.88;;;2.25;;
39882;SDS011;55824;52.220;21.040;2023-08-01T09:31:42;3.47;;;2.25;;
39882;SDS011;55824;52.220;21.040;2023-08-01T09:34:18;3.67;;;2.33;;
39882;SDS011;55824;52.220;21.040;2023-08-01T09:36:44;4.90;;;2.25;;
39882;SDS011;55824;52.220;21.040;2023-08-01T09:39:14;3.72;;;2.35;;
39882;SDS011;55824;52.220;21.040;2023-08-01T09:41:41;5.32;;;2.17;;
39882;SDS011;55824;52.220;21.040;2023-08-01T09:44:10;4.47;;;2.40;;
39882;SDS011;55824;52.220;21.040;2023-08-01T09:49:09;5.82;;;3.05;;
39882;SDS011;55824;52.220;21.040;2023-08-01T09:51:46;5.55;;;2.78;;
39882;SDS011;55824;52.220;21.040;2023-08-01T09:54:12;3.60;;;2.17;;
39882;SDS011;55824;52.220;21.040;2023-08-01T09:56:38;4.00;;;2.20;;
39882;SDS011;55824;52.220;21.040;2023-08-01T09:59:05;4.32;;;2.60;;
39882;SDS011;55824;52.220;21.040;2023-08-01T10:01:31;4.15;;;2.15;;
39882;SDS011;55824;52.220;21.040;2023-08-01T10:03:57;3.55;;;1.70;;
39882;SDS011;55824;52.220;21.040;2023-08-01T10:06:24;2.85;;;2.10;;
39882;SDS011;55824;52.220;21.040;2023-08-01T10:08:53;5.47;;;2.17;;
39882;SDS011;55824;52.220;21.040;2023-08-01T10:11:20;4.45;;;2.53;;
39882;SDS011;55824;52.220;21.040;2023-08-01T10:13:47;3.80;;;2.60;;
39882;SDS011;55824;52.220;21.040;2023-08-01T10:16:13;3.08;;;2.53;;
39882;SDS011;55824;52.220;21.040;2023-08-01T10:18:39;3.22;;;2.08;;
39882;SDS011;55824;52.220;21.040;2023-08-01T10:21:06;4.93;;;2.90;;
39882;SDS011;55824;52.220;21.040;2023-08-01T10:23:35;3.75;;;1.88;;
39882;SDS011;55824;52.220;21.040;2023-08-01T10:26:03;7.28;;;2.30;;
39882;SDS011;55824;52.220;21.040;2023-08-01T10:28:33;3.55;;;2.33;;
39882;SDS011;55824;52.220;21.040;2023-08-01T10:31:07;3.92;;;2.15;;
39882;SDS011;55824;52.220;21.040;2023-08-01T10:33:33;4.50;;;2.60;;
39882;SDS011;55824;52.220;21.040;2023-08-01T10:35:59;4.03;;;2.20;;
39882;SDS011;55824;52.220;21.040;2023-08-01T10:38:25;3.08;;;2.10;;
39882;SDS011;55824;52.220;21.040;2023-08-01T10:40:51;6.28;;;2.60;;
39882;SDS011;55824;52.220;21.040;2023-08-01T10:43:18;5.45;;;2.22;;
39882;SDS011;55824;52.220;21.040;2023-08-01T10:45:45;5.25;;;2.38;;
39882;SDS011;55824;52.220;21.040;2023-08-01T10:48:11;4.15;;;2.42;;
39882;SDS011;55824;52.220;21.040;2023-08-01T10:50:38;6.10;;;2.58;;
39882;SDS011;55824;52.220;21.040;2023-08-01T10:53:05;3.97;;;2.35;;
39882;SDS011;55824;52.220;21.040;2023-08-01T10:55:41;4.40;;;2.30;;
39882;SDS011;55824;52.220;21.040;2023-08-01T10:58:08;5.38;;;2.22;;
39882;SDS011;55824;52.220;21.040;2023-08-01T11:00:34;5.45;;;2.50;;
39882;SDS011;55824;52.220;21.040;2023-08-01T11:02:59;3.83;;;2.35;;
39882;SDS011;55824;52.220;21.040;2023-08-01T11:05:26;5.20;;;2.47;;
39882;SDS011;55824;52.220;21.040;2023-08-01T11:07:56;3.53;;;1.92;;
39882;SDS011;55824;52.220;21.040;2023-08-01T11:10:24;3.75;;;2.20;;
39882;SDS011;55824;52.220;21.040;2023-08-01T11:12:50;4.30;;;2.35;;
39882;SDS011;55824;52.220;21.040;2023-08-01T11:15:16;3.72;;;2.20;;
39882;SDS011;55824;52.220;21.040;2023-08-01T11:17:45;4.18;;;2.47;;
39882;SDS011;55824;52.220;21.040;2023-08-01T11:20:12;3.88;;;2.30;;
39882;SDS011;55824;52.220;21.040;2023-08-01T11:22:48;5.53;;;2.40;;
39882;SDS011;55824;52.220;21.040;2023-08-01T11:25:14;3.08;;;1.98;;
39882;SDS011;55824;52.220;21.040;2023-08-01T11:27:40;3.53;;;2.03;;
39882;SDS011;55824;52.220;21.040;2023-08-01T11:30:06;6.72;;;2.30;;
39882;SDS011;55824;52.220;21.040;2023-08-01T11:32:36;5.85;;;2.50;;
39882;SDS011;55824;52.220;21.040;2023-08-01T11:35:02;4.32;;;2.50;;
39882;SDS011;55824;52.220;21.040;2023-08-01T11:37:28;6.65;;;2.70;;
39882;SDS011;55824;52.220;21.040;2023-08-01T11:39:55;4.40;;;2.28;;
39882;SDS011;55824;52.220;21.040;2023-08-01T11:42:21;6.65;;;2.60;;
39882;SDS011;55824;52.220;21.040;2023-08-01T11:44:47;4.90;;;2.55;;
39882;SDS011;55824;52.220;21.040;2023-08-01T11:47:14;3.85;;;2.42;;
39882;SDS011;55824;52.220;21.040;2023-08-01T11:49:47;6.30;;;2.40;;
39882;SDS011;55824;52.220;21.040;2023-08-01T11:52:25;5.38;;;2.72;;
39882;SDS011;55824;52.220;21.040;2023-08-01T11:54:52;3.50;;;2.35;;
39882;SDS011;55824;52.220;21.040;2023-08-01T11:57:22;3.53;;;2.35;;
39882;SDS011;55824;52.220;21.040;2023-08-01T11:59:55;6.78;;;2.65;;
39882;SDS011;55824;52.220;21.040;2023-08-01T12:02:21;3.85;;;2.40;;
39882;SDS011;55824;52.220;21.040;2023-08-01T12:04:48;4.57;;;2.78;;
39882;SDS011;55824;52.220;21.040;2023-08-01T12:07:14;4.45;;;2.60;;
39882;SDS011;55824;52.220;21.040;2023-08-01T12:09:41;3.33;;;2.33;;
39882;SDS011;55824;52.220;21.040;2023-08-01T12:12:08;3.22;;;2.25;;
39882;SDS011;55824;52.220;21.040;2023-08-01T12:14:38;4.50;;;2.45;;
39882;SDS011;55824;52.220;21.040;2023-08-01T12:17:04;3.83;;;2.55;;
39882;SDS011;55824;52.220;21.040;2023-08-01T12:19:30;3.53;;;2.17;;
39882;SDS011;55824;52.220;21.040;2023-08-01T12:21:58;5.00;;;2.30;;
39882;SDS011;55824;52.220;21.040;2023-08-01T12:24:24;6.13;;;2.50;;
39882;SDS011;55824;52.220;21.040;2023-08-01T12:26:50;3.33;;;2.58;;
39882;SDS011;55824;52.220;21.040;2023-08-01T12:29:16;4.10;;;2.40;;
39882;SDS011;55824;52.220;21.040;2023-08-01T12:31:42;3.70;;;2.38;;
39882;SDS011;55824;52.220;21.040;2023-08-01T12:34:10;3.28;;;2.38;;
39882;SDS011;55824;52.220;21.040;2023-08-01T12:36:36;3.85;;;2.40;;
39882;SDS011;55824;52.220;21.040;2023-08-01T12:39:02;5.28;;;2.90;;
39882;SDS011;55824;52.220;21.040;2023-08-01T12:41:30;4.88;;;2.33;;
39882;SDS011;55824;52.220;21.040;2023-08-01T12:43:56;2.97;;;2.13;;
39882;SDS011;55824;52.220;21.040;2023-08-01T12:46:22;5.70;;;2.80;;
39882;SDS011;55824;52.220;21.040;2023-08-01T12:48:48;3.50;;;2.28;;
39882;SDS011;55824;52.220;21.040;2023-08-01T12:51:13;4.25;;;2.58;;
39882;SDS011;55824;52.220;21.040;2023-08-01T12:53:39;3.65;;;2.33;;
39882;SDS011;55824;52.220;21.040;2023-08-01T12:56:05;3.22;;;2.20;;
39882;SDS011;55824;52.220;21.040;2023-08-01T12:58:31;4.50;;;2.42;;
39882;SDS011;55824;52.220;21.040;2023-08-01T13:00:57;3.40;;;2.30;;
39882;SDS011;55824;52.220;21.040;2023-08-01T13:03:23;4.45;;;2.40;;
39882;SDS011;55824;52.220;21.040;2023-08-01T13:05:49;3.78;;;2.72;;
39882;SDS011;55824;52.220;21.040;2023-08-01T13:08:17;3.97;;;2.40;;
39882;SDS011;55824;52.220;21.040;2023-08-01T13:10:43;5.97;;;2.55;;
39882;SDS011;55824;52.220;21.040;2023-08-01T13:13:11;4.43;;;2.70;;
39882;SDS011;55824;52.220;21.040;2023-08-01T13:15:37;4.25;;;2.67;;
39882;SDS011;55824;52.220;21.040;2023-08-01T13:18:03;6.63;;;2.38;;
39882;SDS011;55824;52.220;21.040;2023-08-01T13:20:29;3.20;;;2.20;;
39882;SDS011;55824;52.220;21.040;2023-08-01T13:22:55;3.95;;;2.55;;
39882;SDS011;55824;52.220;21.040;2023-08-01T13:25:21;3.80;;;2.38;;
39882;SDS011;55824;52.220;21.040;2023-08-01T13:27:47;4.07;;;2.42;;
39882;SDS011;55824;52.220;21.040;2023-08-01T13:30:13;5.05;;;2.72;;
39882;SDS011;55824;52.220;21.040;2023-08-01T13:32:39;4.68;;;2.50;;
39882;SDS011;55824;52.220;21.040;2023-08-01T13:35:05;4.90;;;2.50;;
39882;SDS011;55824;52.220;21.040;2023-08-01T13:37:31;3.88;;;2.38;;
39882;SDS011;55824;52.220;21.040;2023-08-01T13:39:57;4.75;;;2.65;;
39882;SDS011;55824;52.220;21.040;2023-08-01T13:42:23;4.88;;;2.97;;
39882;SDS011;55824;52.220;21.040;2023-08-01T13:44:49;5.22;;;2.47;;
39882;SDS011;55824;52.220;21.040;2023-08-01T13:47:15;4.25;;;2.90;;
39882;SDS011;55824;52.220;21.040;2023-08-01T13:49:41;5.25;;;2.70;;
39882;SDS011;55824;52.220;21.040;2023-08-01T13:52:07;4.28;;;2.65;;
39882;SDS011;55824;52.220;21.040;2023-08-01T13:54:33;4.10;;;2.35;;
39882;SDS011;55824;52.220;21.040;2023-08-01T13:57:00;4.53;;;2.70;;
39882;SDS011;55824;52.220;21.040;2023-08-01T13:59:26;5.10;;;2.55;;
39882;SDS011;55824;52.220;21.040;2023-08-01T14:01:52;3.67;;;2.28;;
39882;SDS011;55824;52.220;21.040;2023-08-01T14:04:18;4.15;;;2.40;;
39882;SDS011;55824;52.220;21.040;2023-08-01T14:06:44;7.13;;;2.80;;
39882;SDS011;55824;52.220;21.040;2023-08-01T14:09:10;3.85;;;2.60;;
39882;SDS011;55824;52.220;21.040;2023-08-01T14:11:37;3.78;;;1.95;;
39882;SDS011;55824;52.220;21.040;2023-08-01T14:14:03;6.28;;;2.83;;
39882;SDS011;55824;52.220;21.040;2023-08-01T14:16:29;5.05;;;2.53;;
39882;SDS011;55824;52.220;21.040;2023-08-01T14:18:56;4.25;;;2.83;;
39882;SDS011;55824;52.220;21.040;2023-08-01T14:21:22;4.18;;;2.13;;
39882;SDS011;55824;52.220;21.040;2023-08-01T14:23:48;2.83;;;2.22;;
39882;SDS011;55824;52.220;21.040;2023-08-01T14:26:14;7.13;;;2.65;;
39882;SDS011;55824;52.220;21.040;2023-08-01T14:28:40;5.55;;;2.47;;
39882;SDS011;55824;52.220;21.040;2023-08-01T14:31:06;3.42;;;2.33;;